createdAt,value
2022-10-13T00:00:53.096Z,101260.81
2022-10-13T00:03:21.305Z,101266.94
2022-10-13T00:05:51.889Z,101276.50
2022-10-13T00:08:22.417Z,101260.94
2022-10-13T00:10:52.678Z,101265.53
2022-10-13T00:13:22.006Z,101267.94
2022-10-13T00:15:50.377Z,101263.03
2022-10-13T00:18:18.579Z,101259.38
2022-10-13T00:20:49.182Z,101261.56
2022-10-13T00:23:18.536Z,101260.31
2022-10-13T00:25:48.154Z,101262.06
2022-10-13T00:28:19.703Z,101256.06
2022-10-13T00:30:48.866Z,101252.91
2022-10-13T00:33:16.999Z,101246.38
2022-10-13T00:35:47.380Z,101254.63
2022-10-13T00:38:17.081Z,101259.53
2022-10-13T00:40:46.740Z,101262.69
2022-10-13T00:43:27.716Z,101256.97
2022-10-13T00:45:56.153Z,101252.69
2022-10-13T00:48:28.756Z,101242.06
2022-10-13T00:50:58.332Z,101249.38
2022-10-13T00:53:31.780Z,101254.75
2022-10-13T00:56:00.495Z,101248.81
2022-10-13T00:58:32.926Z,101246.50
2022-10-13T01:01:02.098Z,101248.38
2022-10-13T01:03:30.323Z,101243.00
2022-10-13T01:06:01.917Z,101246.00
2022-10-13T01:08:30.747Z,101249.50
2022-10-13T01:11:10.064Z,101249.69
2022-10-13T01:13:45.812Z,101256.06
2022-10-13T01:16:23.673Z,101253.34
2022-10-13T01:18:58.266Z,101256.00
2022-10-13T01:21:32.432Z,101253.06
2022-10-13T01:24:31.420Z,101248.81
2022-10-13T01:27:19.391Z,101251.81
2022-10-13T01:30:06.452Z,101248.22
2022-10-13T01:32:45.078Z,101244.06
2022-10-13T01:35:17.777Z,101240.53
2022-10-13T01:37:54.135Z,101233.28
2022-10-13T01:40:27.389Z,101235.84
2022-10-13T01:43:00.465Z,101237.53
2022-10-13T01:45:37.582Z,101245.75
2022-10-13T01:48:09.057Z,101244.47
2022-10-13T01:50:38.404Z,101246.31
2022-10-13T01:53:08.030Z,101233.34
2022-10-13T01:55:36.172Z,101236.50
2022-10-13T01:58:04.284Z,101238.91
2022-10-13T02:00:42.476Z,101234.50
2022-10-13T02:03:21.575Z,101239.03
2022-10-13T02:05:59.215Z,101244.91
2022-10-13T02:08:32.908Z,101245.38
2022-10-13T02:11:11.052Z,101245.78
2022-10-13T02:13:45.567Z,101250.28
2022-10-13T02:16:17.086Z,101254.75
2022-10-13T02:18:45.906Z,101242.81
2022-10-13T02:21:14.070Z,101252.69
2022-10-13T02:23:44.207Z,101246.97
2022-10-13T02:26:12.854Z,101247.13
2022-10-13T02:28:41.907Z,101255.56
2022-10-13T02:31:10.657Z,101257.16
2022-10-13T02:33:40.108Z,101253.09
2022-10-13T02:36:08.284Z,101255.06
2022-10-13T02:38:36.490Z,101256.88
2022-10-13T02:41:04.623Z,101258.16
2022-10-13T02:43:33.932Z,101259.75
2022-10-13T02:46:02.307Z,101256.38
2022-10-13T02:48:33.236Z,101253.97
2022-10-13T02:51:02.739Z,101253.66
2022-10-13T02:53:30.836Z,101248.53
2022-10-13T02:55:59.687Z,101250.00
2022-10-13T02:58:27.920Z,101255.50
2022-10-13T03:00:56.008Z,101255.03
2022-10-13T03:03:24.343Z,101263.22
2022-10-13T03:05:52.590Z,101266.25
2022-10-13T03:08:22.116Z,101267.25
2022-10-13T03:10:50.288Z,101265.56
2022-10-13T03:13:19.605Z,101266.84
2022-10-13T03:15:48.403Z,101262.03
2022-10-13T03:18:16.492Z,101270.34
2022-10-13T03:20:44.929Z,101270.22
2022-10-13T03:23:13.118Z,101264.66
2022-10-13T03:25:42.767Z,101261.06
2022-10-13T03:28:10.894Z,101265.34
2022-10-13T03:30:39.048Z,101259.72
2022-10-13T03:33:07.250Z,101256.84
2022-10-13T03:35:35.299Z,101250.78
2022-10-13T03:38:03.380Z,101257.16
2022-10-13T03:40:31.500Z,101251.06
2022-10-13T03:43:00.951Z,101252.84
2022-10-13T03:45:31.403Z,101246.50
2022-10-13T03:47:59.722Z,101238.50
2022-10-13T03:50:27.933Z,101247.69
2022-10-13T03:52:56.159Z,101239.81
2022-10-13T03:55:24.845Z,101235.00
2022-10-13T03:57:53.059Z,101238.91
2022-10-13T04:00:23.319Z,101226.19
2022-10-13T04:02:51.739Z,101226.06
2022-10-13T04:05:19.877Z,101230.59
2022-10-13T04:07:47.953Z,101235.28
2022-10-13T04:10:16.096Z,101228.22
2022-10-13T04:12:44.411Z,101227.22
2022-10-13T04:15:12.908Z,101224.56
2022-10-13T04:17:42.381Z,101222.06
2022-10-13T04:20:11.731Z,101225.38
2022-10-13T04:22:39.868Z,101214.72
2022-10-13T04:25:09.166Z,101214.50
2022-10-13T04:27:38.545Z,101223.69
2022-10-13T04:30:08.072Z,101214.09
2022-10-13T04:32:36.200Z,101217.72
2022-10-13T04:35:06.665Z,101217.09
2022-10-13T04:37:34.743Z,101219.09
2022-10-13T04:40:02.886Z,101231.75
2022-10-13T04:42:31.022Z,101223.38
2022-10-13T04:44:59.106Z,101227.25
2022-10-13T04:47:27.249Z,101232.44
2022-10-13T04:49:55.370Z,101229.88
2022-10-13T04:52:24.870Z,101228.53
2022-10-13T04:54:52.941Z,101226.22
2022-10-13T04:57:21.426Z,101232.38
2022-10-13T04:59:50.039Z,101240.94
2022-10-13T05:02:18.823Z,101239.50
2022-10-13T05:04:47.339Z,101239.63
2022-10-13T05:07:18.337Z,101230.50
2022-10-13T05:09:48.277Z,101236.06
2022-10-13T05:12:16.820Z,101239.66
2022-10-13T05:14:45.438Z,101246.38
2022-10-13T05:17:13.528Z,101252.59
2022-10-13T05:19:41.717Z,101250.75
2022-10-13T05:22:10.194Z,101249.31
2022-10-13T05:24:38.641Z,101249.91
2022-10-13T05:27:11.204Z,101251.22
2022-10-13T05:29:39.956Z,101258.88
2022-10-13T05:32:09.296Z,101262.50
2022-10-13T05:34:37.362Z,101262.81
2022-10-13T05:37:05.737Z,101262.34
2022-10-13T05:39:33.993Z,101264.56
2022-10-13T05:42:02.132Z,101260.69
2022-10-13T05:44:31.751Z,101259.44
2022-10-13T05:47:03.662Z,101266.28
2022-10-13T05:49:36.493Z,101264.72
2022-10-13T05:52:10.366Z,101268.66
2022-10-13T05:54:41.853Z,101265.13
2022-10-13T05:57:17.140Z,101264.81
2022-10-13T05:59:53.099Z,101274.25
2022-10-13T06:02:24.213Z,101275.66
2022-10-13T06:04:55.779Z,101276.56
2022-10-13T06:07:24.362Z,101277.88
2022-10-13T06:09:53.027Z,101278.00
2022-10-13T06:12:21.411Z,101276.91
2022-10-13T06:14:51.180Z,101271.63
2022-10-13T06:17:19.400Z,101270.63
2022-10-13T06:19:47.511Z,101267.59
2022-10-13T06:22:15.957Z,101283.06
2022-10-13T06:24:44.075Z,101275.34
2022-10-13T06:27:12.771Z,101266.75
2022-10-13T06:29:41.178Z,101270.16
2022-10-13T06:32:10.766Z,101272.34
2022-10-13T06:34:39.205Z,101261.94
2022-10-13T06:37:07.434Z,101266.66
2022-10-13T06:39:35.599Z,101275.03
2022-10-13T06:42:03.774Z,101277.28
2022-10-13T06:44:32.909Z,101276.38
2022-10-13T06:47:01.146Z,101270.31
2022-10-13T06:49:30.705Z,101272.19
2022-10-13T06:51:58.828Z,101269.66
2022-10-13T06:54:26.913Z,101276.81
2022-10-13T06:56:55.062Z,101274.44
2022-10-13T06:59:23.410Z,101287.44
2022-10-13T07:01:51.947Z,101278.34
2022-10-13T07:04:20.111Z,101281.13
2022-10-13T07:06:50.416Z,101281.06
2022-10-13T07:09:20.139Z,101287.38
2022-10-13T07:11:49.620Z,101286.47
2022-10-13T07:14:17.848Z,101286.47
2022-10-13T07:16:45.949Z,101282.63
2022-10-13T07:19:14.147Z,101272.34
2022-10-13T07:21:42.445Z,101282.44
2022-10-13T07:24:12.880Z,101269.25
2022-10-13T07:26:40.975Z,101276.22
2022-10-13T07:29:09.825Z,101273.00
2022-10-13T07:31:37.911Z,101269.19
2022-10-13T07:34:06.808Z,101274.19
2022-10-13T07:36:35.599Z,101266.16
2022-10-13T07:39:04.152Z,101276.06
2022-10-13T07:41:34.619Z,101261.34
2022-10-13T07:44:02.765Z,101261.53
2022-10-13T07:46:30.907Z,101257.97
2022-10-13T07:49:00.390Z,101262.19
2022-10-13T07:51:28.446Z,101268.66
2022-10-13T07:53:56.575Z,101258.50
2022-10-13T07:56:24.915Z,101261.97
2022-10-13T07:58:54.583Z,101267.22
2022-10-13T08:01:22.712Z,101255.06
2022-10-13T08:03:50.946Z,101259.72
2022-10-13T08:06:19.078Z,101261.94
2022-10-13T08:08:47.390Z,101272.50
2022-10-13T08:11:17.412Z,101264.56
2022-10-13T08:13:49.116Z,101262.25
2022-10-13T08:16:19.163Z,101259.75
2022-10-13T08:18:47.879Z,101250.31
2022-10-13T08:21:56.766Z,101262.84
2022-10-13T08:24:06.940Z,101263.84
2022-10-13T08:26:35.270Z,101265.56
2022-10-13T08:29:20.832Z,101263.19
2022-10-13T08:31:52.024Z,101265.78
2022-10-13T08:34:20.484Z,101269.06
2022-10-13T08:36:48.961Z,101264.63
2022-10-13T08:39:17.140Z,101268.03
2022-10-13T08:41:45.932Z,101271.97
2022-10-13T08:47:19.759Z,101269.63
2022-10-13T08:49:47.895Z,101273.69
2022-10-13T08:52:20.972Z,101267.66
2022-10-13T08:54:49.605Z,101269.84
2022-10-13T08:57:18.793Z,101271.69
2022-10-13T08:59:47.834Z,101268.59
2022-10-13T09:02:25.143Z,101271.44
2022-10-13T09:04:54.754Z,101268.78
2022-10-13T09:07:27.821Z,101271.63
2022-10-13T09:09:56.751Z,101263.50
2022-10-13T09:12:26.080Z,101271.00
2022-10-13T09:15:05.182Z,101277.03
2022-10-13T09:17:35.759Z,101272.31
2022-10-13T09:20:08.479Z,101271.41
2022-10-13T09:22:37.782Z,101273.34
2022-10-13T09:25:20.010Z,101269.25
2022-10-13T09:27:51.247Z,101267.84
2022-10-13T09:30:35.082Z,101272.63
2022-10-13T09:33:24.224Z,101268.50
2022-10-13T09:36:11.896Z,101275.13
2022-10-13T09:38:41.704Z,101265.28
2022-10-13T09:41:17.984Z,101267.28
2022-10-13T09:44:01.389Z,101266.75
2022-10-13T09:46:32.877Z,101276.38
2022-10-13T09:49:06.249Z,101269.56
2022-10-13T09:51:38.853Z,101263.38
2022-10-13T09:54:08.379Z,101268.31
2022-10-13T09:56:42.896Z,101255.41
2022-10-13T09:59:22.982Z,101268.84
2022-10-13T10:01:54.321Z,101259.88
2022-10-13T10:04:27.807Z,101265.31
2022-10-13T10:06:56.369Z,101264.53
2022-10-13T10:09:35.564Z,101259.53
2022-10-13T10:12:05.369Z,101247.75
2022-10-13T10:14:35.474Z,101256.25
2022-10-13T10:17:14.083Z,101251.06
2022-10-13T10:19:59.866Z,101248.34
2022-10-13T10:22:38.820Z,101250.13
2022-10-13T10:25:23.611Z,101237.44
2022-10-13T10:28:04.459Z,101233.41
2022-10-13T10:30:35.279Z,101232.13
2022-10-13T10:33:08.777Z,101233.72
2022-10-13T10:35:46.557Z,101231.69
2022-10-13T10:38:30.463Z,101224.88
2022-10-13T10:41:06.317Z,101227.72
2022-10-13T10:43:50.819Z,101229.09
2022-10-13T10:46:23.998Z,101230.56
2022-10-13T10:48:56.157Z,101229.88
2022-10-13T10:51:32.205Z,101223.91
2022-10-13T10:54:10.920Z,101218.56
2022-10-13T10:56:41.878Z,101217.53
2022-10-13T10:59:23.890Z,101206.34
2022-10-13T11:02:03.501Z,101206.78
2022-10-13T11:04:41.450Z,101208.03
2022-10-13T11:07:16.002Z,101195.88
2022-10-13T11:10:05.144Z,101203.50
2022-10-13T11:13:22.427Z,101192.59
2022-10-13T11:15:50.983Z,101195.50
2022-10-13T11:19:05.922Z,101187.50
2022-10-13T11:22:23.850Z,101187.13
2022-10-13T11:25:12.850Z,101186.50
2022-10-13T11:27:43.062Z,101193.97
2022-10-13T11:30:47.549Z,101186.75
2022-10-13T11:33:52.764Z,101181.97
2022-10-13T11:36:56.806Z,101184.34
2022-10-13T11:40:06.627Z,101184.13
2022-10-13T11:43:05.269Z,101170.63
2022-10-13T11:46:24.115Z,101169.09
2022-10-13T11:49:40.210Z,101171.53
2022-10-13T11:52:23.787Z,101165.44
2022-10-13T11:54:56.601Z,101163.16
2022-10-13T11:57:29.326Z,101173.00
2022-10-13T11:59:58.230Z,101172.88
2022-10-13T12:02:28.448Z,101180.09
2022-10-13T12:05:06.976Z,101166.44
2022-10-13T12:07:38.160Z,101163.75
2022-10-13T12:10:16.223Z,101163.75
2022-10-13T12:12:50.912Z,101163.75
2022-10-13T12:15:32.488Z,101155.00
2022-10-13T12:18:00.926Z,101147.94
2022-10-13T12:20:31.171Z,101146.19
2022-10-13T12:22:59.730Z,101146.31
2022-10-13T12:25:31.166Z,101145.41
2022-10-13T12:28:01.932Z,101146.22
2022-10-13T12:30:31.823Z,101144.06
2022-10-13T12:33:01.424Z,101136.25
2022-10-13T12:35:31.971Z,101138.13
2022-10-13T12:38:03.770Z,101138.03
2022-10-13T12:40:32.224Z,101141.28
2022-10-13T12:43:02.540Z,101134.16
2022-10-13T12:45:34.168Z,101135.78
2022-10-13T12:48:02.461Z,101134.00
2022-10-13T12:50:37.350Z,101121.94
2022-10-13T12:53:13.486Z,101119.75
2022-10-13T12:55:50.760Z,101118.03
2022-10-13T12:58:29.768Z,101109.22
2022-10-13T13:01:04.319Z,101102.78
2022-10-13T13:03:32.582Z,101108.66
2022-10-13T13:06:22.621Z,101098.63
2022-10-13T13:09:29.233Z,101097.56
2022-10-13T13:12:22.735Z,101112.22
2022-10-13T13:14:55.293Z,101103.97
2022-10-13T13:20:27.551Z,101113.41
2022-10-13T13:22:56.178Z,101107.06
2022-10-13T13:25:25.161Z,101106.34
2022-10-13T13:27:54.110Z,101107.13
2022-10-13T13:30:25.220Z,101115.34
2022-10-13T13:32:53.349Z,101112.50
2022-10-13T13:35:21.483Z,101107.19
2022-10-13T13:37:51.469Z,101109.38
2022-10-13T13:40:21.748Z,101110.72
2022-10-13T13:42:50.185Z,101112.34
2022-10-13T13:45:20.603Z,101112.13
2022-10-13T13:47:50.513Z,101112.75
2022-10-13T13:50:22.986Z,101111.13
2022-10-13T13:52:51.171Z,101112.47
2022-10-13T13:55:19.626Z,101110.88
2022-10-13T13:57:47.679Z,101119.09
2022-10-13T14:00:17.207Z,101117.69
2022-10-13T14:02:46.340Z,101115.25
2022-10-13T14:05:19.256Z,101111.59
2022-10-13T14:07:47.455Z,101104.81
2022-10-13T14:10:15.701Z,101099.34
2022-10-13T14:12:44.506Z,101097.41
2022-10-13T14:15:12.758Z,101097.63
2022-10-13T14:17:41.058Z,101099.53
2022-10-13T14:20:11.451Z,101101.13
2022-10-13T14:22:41.130Z,101099.63
2022-10-13T14:25:10.422Z,101100.94
2022-10-13T14:27:38.815Z,101094.81
2022-10-13T14:30:08.565Z,101106.53
2022-10-13T14:32:38.797Z,101098.63
2022-10-13T14:35:07.838Z,101101.44
2022-10-13T14:37:36.265Z,101103.06
2022-10-13T14:40:06.823Z,101103.88
2022-10-13T14:42:35.443Z,101102.28
2022-10-13T14:45:06.673Z,101106.59
2022-10-13T14:47:35.108Z,101110.06
2022-10-13T14:50:03.161Z,101117.56
2022-10-13T14:52:31.237Z,101115.41
2022-10-13T14:54:59.297Z,101114.91
2022-10-13T14:57:29.009Z,101117.63
2022-10-13T15:00:01.704Z,101112.09
2022-10-13T15:02:30.640Z,101116.44
2022-10-13T15:04:59.120Z,101116.75
2022-10-13T15:07:27.593Z,101109.59
2022-10-13T15:10:10.981Z,101112.97
2022-10-13T15:12:40.438Z,101111.91
2022-10-13T15:15:09.352Z,101118.28
2022-10-13T15:17:38.107Z,101114.69
2022-10-13T15:20:07.527Z,101122.00
2022-10-13T15:22:35.888Z,101116.31
2022-10-13T15:25:07.855Z,101115.69
2022-10-13T15:27:40.845Z,101121.41
2022-10-13T15:30:12.875Z,101122.81
2022-10-13T15:32:41.081Z,101132.69
2022-10-13T15:35:09.863Z,101129.69
2022-10-13T15:37:38.107Z,101128.88
2022-10-13T15:40:08.016Z,101121.72
2022-10-13T15:42:36.404Z,101138.56
2022-10-13T15:45:09.843Z,101135.56
2022-10-13T15:47:40.350Z,101132.06
2022-10-13T15:50:12.076Z,101131.13
2022-10-13T15:52:40.989Z,101135.69
2022-10-13T15:55:10.389Z,101131.91
2022-10-13T15:57:38.590Z,101128.41
2022-10-13T16:00:09.229Z,101129.34
2022-10-13T16:02:37.482Z,101128.88
2022-10-13T16:05:09.034Z,101129.66
2022-10-13T16:07:37.244Z,101123.94
2022-10-13T16:10:08.100Z,101124.41
2022-10-13T16:12:36.288Z,101121.53
2022-10-13T16:15:04.393Z,101123.44
2022-10-13T16:17:32.811Z,101122.19
2022-10-13T16:20:01.131Z,101127.09
2022-10-13T16:22:31.034Z,101124.38
2022-10-13T16:24:59.202Z,101134.41
2022-10-13T16:27:31.114Z,101133.78
2022-10-13T16:29:59.244Z,101139.00
2022-10-13T16:32:27.464Z,101140.44
2022-10-13T16:34:55.483Z,101141.22
2022-10-13T16:37:24.111Z,101146.63
2022-10-13T16:39:53.787Z,101141.22
2022-10-13T16:42:21.879Z,101143.44
2022-10-13T16:44:50.071Z,101147.88
2022-10-13T16:47:18.846Z,101146.28
2022-10-13T16:49:47.481Z,101155.97
2022-10-13T16:52:15.612Z,101149.59
2022-10-13T16:54:43.838Z,101146.44
2022-10-13T16:57:13.324Z,101142.34
2022-10-13T16:59:41.804Z,101138.38
2022-10-13T17:02:15.547Z,101133.09
2022-10-13T17:04:43.869Z,101132.66
2022-10-13T17:07:12.067Z,101131.22
2022-10-13T17:09:40.459Z,101128.66
2022-10-13T17:12:08.985Z,101128.63
2022-10-13T17:14:38.544Z,101118.00
2022-10-13T17:17:06.714Z,101113.25
2022-10-13T17:19:35.189Z,101115.31
2022-10-13T17:22:03.317Z,101106.06
2022-10-13T17:24:31.395Z,101105.44
2022-10-13T17:26:59.507Z,101109.75
2022-10-13T17:29:27.790Z,101112.41
2022-10-13T17:31:57.369Z,101113.47
2022-10-13T17:34:25.419Z,101105.56
2022-10-13T17:36:53.711Z,101106.00
2022-10-13T17:39:21.867Z,101105.38
2022-10-13T17:41:50.121Z,101102.06
2022-10-13T17:44:20.774Z,101097.63
2022-10-13T17:46:49.745Z,101106.69
2022-10-13T17:49:19.616Z,101110.34
2022-10-13T17:51:51.024Z,101108.63
2022-10-13T17:54:19.971Z,101108.59
2022-10-13T17:56:48.970Z,101100.16
2022-10-13T17:59:18.311Z,101100.00
2022-10-13T18:01:46.777Z,101096.97
2022-10-13T18:04:16.846Z,101100.63
2022-10-13T18:06:47.246Z,101091.09
2022-10-13T18:09:18.121Z,101103.44
2022-10-13T18:11:50.715Z,101098.66
2022-10-13T18:14:19.784Z,101094.22
2022-10-13T18:16:48.938Z,101093.13
2022-10-13T18:19:17.116Z,101098.63
2022-10-13T18:21:46.731Z,101104.31
2022-10-13T18:24:15.097Z,101093.22
2022-10-13T18:26:43.187Z,101093.38
2022-10-13T18:29:13.213Z,101102.09
2022-10-13T18:31:42.723Z,101098.94
2022-10-13T18:34:14.240Z,101094.81
2022-10-13T18:36:44.955Z,101091.94
2022-10-13T18:39:16.756Z,101090.97
2022-10-13T18:41:45.174Z,101090.97
2022-10-13T18:44:13.375Z,101092.50
2022-10-13T18:46:41.963Z,101087.78
2022-10-13T18:49:13.554Z,101097.34
2022-10-13T18:51:42.101Z,101089.56
2022-10-13T18:54:10.479Z,101094.75
2022-10-13T18:56:40.515Z,101096.09
2022-10-13T18:59:10.014Z,101103.19
2022-10-13T19:01:40.867Z,101102.38
2022-10-13T19:04:09.953Z,101105.06
2022-10-13T19:06:38.993Z,101104.44
2022-10-13T19:09:08.582Z,101103.66
2022-10-13T19:11:37.669Z,101105.56
2022-10-13T19:14:11.081Z,101105.53
2022-10-13T19:16:40.978Z,101104.31
2022-10-13T19:19:09.610Z,101112.03
2022-10-13T19:21:38.388Z,101108.72
2022-10-13T19:24:07.322Z,101107.59
2022-10-13T19:26:37.055Z,101107.94
2022-10-13T19:29:09.200Z,101111.53
2022-10-13T19:31:38.563Z,101102.25
2022-10-13T19:34:06.703Z,101112.16
2022-10-13T19:36:37.757Z,101106.59
2022-10-13T19:39:10.851Z,101105.06
2022-10-13T19:41:42.278Z,101109.00
2022-10-13T19:44:12.045Z,101106.78
2022-10-13T19:46:40.779Z,101114.13
2022-10-13T19:49:08.984Z,101116.81
2022-10-13T19:51:38.038Z,101105.72
2022-10-13T19:54:06.493Z,101112.34
2022-10-13T19:56:34.643Z,101114.22
2022-10-13T19:59:04.415Z,101119.81
2022-10-13T20:01:39.913Z,101119.06
2022-10-13T20:04:08.615Z,101117.91
2022-10-13T20:06:37.286Z,101115.53
2022-10-13T20:09:05.534Z,101113.91
2022-10-13T20:11:33.997Z,101117.13
2022-10-13T20:14:02.242Z,101122.19
2022-10-13T20:16:30.451Z,101109.72
2022-10-13T20:19:01.610Z,101114.63
2022-10-13T20:21:30.441Z,101109.25
2022-10-13T20:23:59.007Z,101105.88
2022-10-13T20:26:27.382Z,101104.94
2022-10-13T20:28:55.829Z,101098.78
2022-10-13T20:31:24.386Z,101087.69
2022-10-13T20:33:56.022Z,101082.13
2022-10-13T20:36:26.932Z,101079.13
2022-10-13T20:38:55.506Z,101080.38
2022-10-13T20:41:25.674Z,101070.28
2022-10-13T20:43:56.014Z,101069.38
2022-10-13T20:46:24.839Z,101069.03
2022-10-13T20:49:11.399Z,101067.59
2022-10-13T20:51:42.118Z,101074.69
2022-10-13T20:54:10.666Z,101074.69
2022-10-13T20:56:38.954Z,101073.56
2022-10-13T20:59:09.523Z,101074.19
2022-10-13T21:01:38.392Z,101067.53
2022-10-13T21:04:06.669Z,101066.59
2022-10-13T21:06:36.116Z,101069.91
2022-10-13T21:09:06.845Z,101067.53
2022-10-13T21:11:35.923Z,101066.59
2022-10-13T21:14:09.581Z,101067.22
2022-10-13T21:16:38.707Z,101061.31
2022-10-13T21:19:06.940Z,101054.19
2022-10-13T21:21:36.358Z,101060.41
2022-10-13T21:24:08.182Z,101057.53
2022-10-13T21:26:36.613Z,101052.81
2022-10-13T21:29:04.811Z,101048.69
2022-10-13T21:31:32.922Z,101042.81
2022-10-13T21:34:01.259Z,101037.59
2022-10-13T21:36:30.919Z,101048.38
2022-10-13T21:39:01.280Z,101047.44
2022-10-13T21:41:31.682Z,101043.63
2022-10-13T21:43:59.999Z,101042.03
2022-10-13T21:46:29.776Z,101036.81
2022-10-13T21:48:59.771Z,101034.25
2022-10-13T21:51:30.435Z,101031.06
2022-10-13T21:54:00.667Z,101026.66
2022-10-13T21:56:31.117Z,101026.47
2022-10-13T21:58:59.186Z,101022.94
2022-10-13T22:01:27.679Z,101022.81
2022-10-13T22:03:57.819Z,101020.28
2022-10-13T22:06:26.782Z,101028.22
2022-10-13T22:08:56.797Z,101020.47
2022-10-13T22:11:26.579Z,101020.13
2022-10-13T22:13:57.165Z,101023.81
2022-10-13T22:16:27.483Z,101023.50
2022-10-13T22:18:56.972Z,101023.13
2022-10-13T22:21:27.380Z,101019.19
2022-10-13T22:23:57.738Z,101018.84
2022-10-13T22:26:25.818Z,101018.72
2022-10-13T22:28:55.514Z,101012.69
2022-10-13T22:31:23.582Z,101014.72
2022-10-13T22:33:53.816Z,101013.47
2022-10-13T22:36:23.994Z,101013.31
2022-10-13T22:38:54.353Z,101015.47
2022-10-13T22:41:22.799Z,101021.81
2022-10-13T22:43:51.925Z,101012.78
2022-10-13T22:46:25.067Z,101014.34
2022-10-13T22:48:53.361Z,101019.97
2022-10-13T22:51:23.916Z,101018.25
2022-10-13T22:53:52.340Z,101019.81
2022-10-13T22:56:22.190Z,101019.66
2022-10-13T22:58:51.341Z,101017.59
2022-10-13T23:01:21.717Z,101018.88
2022-10-13T23:03:50.939Z,101018.88
2022-10-13T23:06:21.089Z,101011.00
2022-10-13T23:08:49.785Z,101005.41
2022-10-13T23:11:18.281Z,101019.44
2022-10-13T23:13:46.901Z,101007.88
2022-10-13T23:16:17.229Z,101006.78
2022-10-13T23:18:47.325Z,101004.09
2022-10-13T23:21:17.556Z,101008.50
2022-10-13T23:23:46.341Z,101004.44
2022-10-13T23:26:16.899Z,101008.22
2022-10-13T23:28:45.431Z,101003.63
2022-10-13T23:31:15.283Z,101000.75
2022-10-13T23:33:43.805Z,100998.69
2022-10-13T23:36:16.357Z,101004.44
2022-10-13T23:38:44.633Z,100999.06
2022-10-13T23:41:14.599Z,101002.38
2022-10-13T23:43:43.622Z,101000.59
2022-10-13T23:46:12.319Z,101003.31
2022-10-13T23:48:41.243Z,101005.84
2022-10-13T23:51:10.956Z,101000.91
2022-10-13T23:53:41.317Z,101005.38
2022-10-13T23:56:12.146Z,101004.13
2022-10-13T23:58:42.193Z,100995.09
